KENL/ENL METAR and TAF weather

Enter ICAO airport designator
Station Type Date Time Source
KENL METAR 2019/10/15 19:35 UTC NOAA

KENL 151935Z AUTO 22008G15KT 10SM OVC033 22/15 A2983 RMK AO2 T02160146


Station Type Date Time Source
KENL Decoded METAR 2019/10/15 19:35 UTC NOAA

Centralia, Centralia Municipal Airport, IL, United States (KENL) 38-30-53N 089-05-32W
Oct 15, 2019 - 03:35 PM EDT / 2019.10.15 1935 UTC
Wind: from the SW (220 degrees) at 9 MPH (8 KT) gusting to 17 MPH (15 KT):0
Visibility: 10 mile(s):0
Sky conditions: overcast
Temperature: 70.9 F (21.6 C)
Dew Point: 58.3 F (14.6 C)
Relative Humidity: 64%
Pressure (altimeter): 29.83 in. Hg (1010 hPa)
ob: KENL 151935Z AUTO 22008G15KT 10SM OVC033 22/15 A2983 RMK AO2 T02160146
cycle: 19

Station Type Date Time Source
KENL TAF UTC NOAA

Error!

Example: see airport list